Shooks, Minnesota
Current Conditions -  °F | °C
As of 5:13 AM on Sunday 21 Dec 2014 (Local Time) from KFOZ Reporting Station
Haze Haze  
Wind Chill: 17°   Ceiling: 400
Heat Index: 28°   Visibility: 5mi
Dew Point: 27°   Wind: 15mph
Humidity: 93%   Direction: 170°S
Pressure: 29.84"   Gusts: NA
Location:  47.8312°N, 94.1459°W
Report Text: KFOZ 211113Z AUTO 17013KT 5SM BR OVC004 M02/M03 A2984 RMK AO2
Loading
Personal Weather Stations






























Interactive Weather Map New forecast layout! Learn more

10-Day Weather Forecast

Advertisements
Track Severe Weather on mobile